BAW965 EDDH-EGLL
Flight info
| Callsign | BAW965 |
|---|---|
| Flight time | 1h 16m |
| Altitude | 36000 |
| Route | WSN5C WSN N125 ITMIZ DCT ABNED L980 LOGAN |
| Aircraft | A320/M-SDE3FGHIRWY/LB1 |
Departure
| Time | 2026-05-06 15:01 |
|---|---|
| Airport | Hamburg Helmut Schmidt Airport (EDDH) |
Arrival
| Time | 2026-05-06 16:17 |
|---|---|
| Airport | London Heathrow Airport (EGLL) |
| Time | Latitude | Longitude | Altitude | Speed | Heading |
|---|---|---|---|---|---|
| 2026-05-06 14:11 | 53.62654 | 10.00384 | 49 ft | 0 kts | 64° |
| 2026-05-06 14:52 | 53.62653 | 10.00380 | 48 ft | 2 kts | 64° |
| 2026-05-06 14:52 | 53.62642 | 10.00340 | 47 ft | 4 kts | 67° |
| 2026-05-06 14:52 | 53.62633 | 10.00298 | 48 ft | 4 kts | 78° |
| 2026-05-06 14:53 | 53.62633 | 10.00257 | 48 ft | 4 kts | 139° |
| 2026-05-06 14:53 | 53.62637 | 10.00251 | 48 ft | 0 kts | 153° |
| 2026-05-06 14:55 | 53.62634 | 10.00253 | 48 ft | 1 kts | 153° |
| 2026-05-06 14:55 | 53.62622 | 10.00264 | 43 ft | 3 kts | 153° |
| 2026-05-06 14:56 | 53.62589 | 10.00261 | 48 ft | 7 kts | 219° |
| 2026-05-06 14:56 | 53.62568 | 10.00199 | 46 ft | 0 kts | 244° |
| 2026-05-06 14:57 | 53.62568 | 10.00198 | 46 ft | 0 kts | 244° |
| 2026-05-06 14:57 | 53.62562 | 10.00178 | 47 ft | 0 kts | 243° |
| 2026-05-06 14:57 | 53.62557 | 10.00162 | 47 ft | 3 kts | 243° |
| 2026-05-06 14:57 | 53.62541 | 10.00110 | 46 ft | 6 kts | 245° |
| 2026-05-06 14:58 | 53.62531 | 10.00052 | 47 ft | 5 kts | 274° |
| 2026-05-06 14:58 | 53.62538 | 10.00035 | 47 ft | 0 kts | 315° |
| 2026-05-06 14:59 | 53.62539 | 10.00034 | 44 ft | 1 kts | 315° |
| 2026-05-06 14:59 | 53.62547 | 10.00024 | 46 ft | 2 kts | 325° |
| 2026-05-06 15:00 | 53.62564 | 10.00007 | 47 ft | 15 kts | 331° |
| 2026-05-06 15:00 | 53.62838 | 9.99774 | 45 ft | 73 kts | 333° |
| 2026-05-06 15:01 | 53.63453 | 9.99243 | 47 ft | 125 kts | 333° |
| 2026-05-06 15:01 | 53.64369 | 9.98443 | 88 ft | 168 kts | 336° |
| 2026-05-06 15:01 | 53.65394 | 9.97534 | 746 ft | 166 kts | 337° |
| 2026-05-06 15:01 | 53.66431 | 9.96673 | 1406 ft | 170 kts | 339° |
| 2026-05-06 15:02 | 53.67553 | 9.95738 | 1725 ft | 192 kts | 338° |
| 2026-05-06 15:02 | 53.68815 | 9.94673 | 2214 ft | 209 kts | 338° |
| 2026-05-06 15:02 | 53.70123 | 9.93551 | 3033 ft | 213 kts | 338° |
| 2026-05-06 15:02 | 53.71290 | 9.91928 | 3768 ft | 230 kts | 304° |
| 2026-05-06 15:03 | 53.71685 | 9.89215 | 4308 ft | 255 kts | 268° |
| 2026-05-06 15:03 | 53.71328 | 9.86139 | 4823 ft | 277 kts | 252° |
| 2026-05-06 15:03 | 53.70653 | 9.83052 | 5707 ft | 283 kts | 247° |
| 2026-05-06 15:03 | 53.69899 | 9.79968 | 6633 ft | 286 kts | 247° |
| 2026-05-06 15:04 | 53.69148 | 9.76838 | 7537 ft | 289 kts | 248° |
| 2026-05-06 15:04 | 53.68428 | 9.73655 | 8469 ft | 291 kts | 250° |
| 2026-05-06 15:04 | 53.67741 | 9.70432 | 9394 ft | 293 kts | 251° |
| 2026-05-06 15:04 | 53.67073 | 9.67168 | 9770 ft | 294 kts | 252° |
| 2026-05-06 15:05 | 53.66418 | 9.63884 | 9995 ft | 304 kts | 252° |
| 2026-05-06 15:05 | 53.65723 | 9.60372 | 10303 ft | 325 kts | 251° |
| 2026-05-06 15:05 | 53.64747 | 9.56877 | 10897 ft | 333 kts | 238° |
| 2026-05-06 15:05 | 53.63415 | 9.53653 | 11620 ft | 337 kts | 233° |
| 2026-05-06 15:06 | 53.62034 | 9.50439 | 12386 ft | 340 kts | 233° |
| 2026-05-06 15:06 | 53.60644 | 9.47202 | 13136 ft | 343 kts | 232° |
| 2026-05-06 15:06 | 53.59239 | 9.43932 | 13860 ft | 346 kts | 232° |
| 2026-05-06 15:06 | 53.57821 | 9.40633 | 14519 ft | 349 kts | 232° |
| 2026-05-06 15:07 | 53.56414 | 9.37363 | 15182 ft | 350 kts | 232° |
| 2026-05-06 15:07 | 53.54966 | 9.33994 | 15855 ft | 352 kts | 232° |
| 2026-05-06 15:07 | 53.53522 | 9.30641 | 16506 ft | 355 kts | 232° |
| 2026-05-06 15:07 | 53.52065 | 9.27271 | 17151 ft | 357 kts | 232° |
| 2026-05-06 15:08 | 53.50617 | 9.23935 | 17787 ft | 360 kts | 232° |
| 2026-05-06 15:08 | 53.49134 | 9.20521 | 18397 ft | 363 kts | 232° |
| 2026-05-06 15:08 | 53.47640 | 9.17083 | 18944 ft | 366 kts | 233° |
| 2026-05-06 15:08 | 53.46137 | 9.13624 | 19501 ft | 368 kts | 233° |
| 2026-05-06 15:09 | 53.44618 | 9.10128 | 20075 ft | 371 kts | 233° |
| 2026-05-06 15:09 | 53.43093 | 9.06615 | 20645 ft | 374 kts | 233° |
| 2026-05-06 15:09 | 53.41552 | 9.03076 | 21194 ft | 377 kts | 233° |
| 2026-05-06 15:09 | 53.39997 | 8.99515 | 21730 ft | 380 kts | 233° |
| 2026-05-06 15:10 | 53.38956 | 8.97142 | 22084 ft | 382 kts | 233° |
| 2026-05-06 15:10 | 53.37376 | 8.93544 | 22620 ft | 385 kts | 233° |
| 2026-05-06 15:10 | 53.35789 | 8.89914 | 23156 ft | 388 kts | 234° |
| 2026-05-06 15:10 | 53.34419 | 8.85945 | 23630 ft | 392 kts | 245° |
| 2026-05-06 15:11 | 53.33449 | 8.81731 | 24049 ft | 395 kts | 249° |
| 2026-05-06 15:11 | 53.32499 | 8.77409 | 24497 ft | 397 kts | 249° |
| 2026-05-06 15:11 | 53.31533 | 8.73057 | 24936 ft | 400 kts | 249° |
| 2026-05-06 15:11 | 53.30561 | 8.68690 | 25370 ft | 403 kts | 249° |
| 2026-05-06 15:12 | 53.29585 | 8.64290 | 25794 ft | 405 kts | 249° |
| 2026-05-06 15:12 | 53.28611 | 8.59864 | 26221 ft | 408 kts | 249° |
| 2026-05-06 15:12 | 53.27634 | 8.55398 | 26653 ft | 410 kts | 249° |
| 2026-05-06 15:12 | 53.26651 | 8.50909 | 27068 ft | 413 kts | 249° |
| 2026-05-06 15:13 | 53.25690 | 8.46367 | 27484 ft | 416 kts | 250° |
| 2026-05-06 15:13 | 53.24792 | 8.41746 | 27908 ft | 419 kts | 251° |
| 2026-05-06 15:13 | 53.23934 | 8.37076 | 28328 ft | 421 kts | 252° |
| 2026-05-06 15:13 | 53.23088 | 8.32378 | 28722 ft | 424 kts | 252° |
| 2026-05-06 15:14 | 53.22231 | 8.27660 | 29110 ft | 427 kts | 252° |
| 2026-05-06 15:14 | 53.21354 | 8.22911 | 29491 ft | 429 kts | 251° |
| 2026-05-06 15:14 | 53.20455 | 8.18146 | 29856 ft | 432 kts | 251° |
| 2026-05-06 15:14 | 53.19541 | 8.13368 | 30183 ft | 434 kts | 251° |
| 2026-05-06 15:15 | 53.18618 | 8.08564 | 30505 ft | 436 kts | 251° |
| 2026-05-06 15:15 | 53.17697 | 8.03735 | 30822 ft | 437 kts | 251° |
| 2026-05-06 15:15 | 53.16782 | 7.98894 | 31144 ft | 439 kts | 251° |
| 2026-05-06 15:15 | 53.15868 | 7.94038 | 31460 ft | 440 kts | 251° |
| 2026-05-06 15:16 | 53.14952 | 7.89193 | 31940 ft | 437 kts | 251° |
| 2026-05-06 15:16 | 53.14037 | 7.84376 | 32404 ft | 435 kts | 251° |
| 2026-05-06 15:16 | 53.13126 | 7.79593 | 32881 ft | 433 kts | 251° |
| 2026-05-06 15:16 | 53.12217 | 7.74839 | 33372 ft | 430 kts | 251° |
| 2026-05-06 15:17 | 53.11309 | 7.70096 | 33865 ft | 428 kts | 251° |
| 2026-05-06 15:17 | 53.10366 | 7.65406 | 34253 ft | 425 kts | 247° |
| 2026-05-06 15:17 | 53.09222 | 7.60881 | 34609 ft | 424 kts | 246° |
| 2026-05-06 15:17 | 53.08070 | 7.56368 | 34946 ft | 423 kts | 246° |
| 2026-05-06 15:18 | 53.06922 | 7.51865 | 35264 ft | 423 kts | 246° |
| 2026-05-06 15:18 | 53.05774 | 7.47370 | 35582 ft | 422 kts | 246° |
| 2026-05-06 15:18 | 53.04626 | 7.42883 | 35836 ft | 422 kts | 246° |
| 2026-05-06 15:19 | 53.02340 | 7.33943 | 35901 ft | 419 kts | 246° |
| 2026-05-06 15:19 | 53.00054 | 7.25041 | 35894 ft | 418 kts | 246° |
| 2026-05-06 15:20 | 52.97767 | 7.16223 | 35898 ft | 419 kts | 245° |
| 2026-05-06 15:20 | 52.95455 | 7.07342 | 35898 ft | 419 kts | 245° |
| 2026-05-06 15:21 | 52.93142 | 6.98457 | 35899 ft | 419 kts | 245° |
| 2026-05-06 15:21 | 52.90820 | 6.89587 | 35910 ft | 420 kts | 245° |
| 2026-05-06 15:22 | 52.88493 | 6.80728 | 35905 ft | 420 kts | 245° |
| 2026-05-06 15:22 | 52.86158 | 6.71870 | 35899 ft | 420 kts | 245° |
| 2026-05-06 15:23 | 52.83810 | 6.63003 | 35896 ft | 420 kts | 245° |
| 2026-05-06 15:23 | 52.81463 | 6.54162 | 35896 ft | 420 kts | 245° |
| 2026-05-06 15:24 | 52.79101 | 6.45313 | 35893 ft | 420 kts | 245° |
| 2026-05-06 15:24 | 52.76730 | 6.36478 | 35891 ft | 421 kts | 245° |
| 2026-05-06 15:25 | 52.74359 | 6.27649 | 35894 ft | 421 kts | 245° |
| 2026-05-06 15:25 | 52.71990 | 6.18884 | 35893 ft | 421 kts | 245° |
| 2026-05-06 15:26 | 52.69600 | 6.10068 | 35894 ft | 421 kts | 245° |
| 2026-05-06 15:26 | 52.67200 | 6.01257 | 35892 ft | 421 kts | 245° |
| 2026-05-06 15:27 | 52.64799 | 5.92454 | 35886 ft | 421 kts | 245° |
| 2026-05-06 15:27 | 52.62398 | 5.83657 | 35887 ft | 421 kts | 245° |
| 2026-05-06 15:28 | 52.59977 | 5.74866 | 35887 ft | 422 kts | 245° |
| 2026-05-06 15:28 | 52.57546 | 5.66076 | 35887 ft | 422 kts | 245° |
| 2026-05-06 15:29 | 52.55118 | 5.57302 | 35886 ft | 422 kts | 245° |
| 2026-05-06 15:29 | 52.52676 | 5.48543 | 35883 ft | 421 kts | 244° |
| 2026-05-06 15:30 | 52.50236 | 5.39808 | 35882 ft | 421 kts | 244° |
| 2026-05-06 15:30 | 52.47790 | 5.31070 | 35883 ft | 421 kts | 244° |
| 2026-05-06 15:31 | 52.45338 | 5.22346 | 35881 ft | 421 kts | 244° |
| 2026-05-06 15:31 | 52.42878 | 5.13645 | 35884 ft | 421 kts | 244° |
| 2026-05-06 15:32 | 52.39166 | 5.00589 | 35906 ft | 421 kts | 244° |
| 2026-05-06 15:32 | 52.36689 | 4.91893 | 35911 ft | 421 kts | 244° |
| 2026-05-06 15:33 | 52.34206 | 4.83206 | 35915 ft | 421 kts | 244° |
| 2026-05-06 15:33 | 52.31719 | 4.74540 | 35914 ft | 421 kts | 244° |
| 2026-05-06 15:34 | 52.29242 | 4.65949 | 35915 ft | 421 kts | 244° |
| 2026-05-06 15:34 | 52.26742 | 4.57298 | 35913 ft | 421 kts | 244° |
| 2026-05-06 15:35 | 52.24233 | 4.48655 | 35914 ft | 421 kts | 244° |
| 2026-05-06 15:35 | 52.21711 | 4.40017 | 35910 ft | 421 kts | 244° |
| 2026-05-06 15:36 | 52.19192 | 4.31388 | 35910 ft | 421 kts | 244° |
| 2026-05-06 15:36 | 52.16665 | 4.22771 | 35918 ft | 421 kts | 244° |
| 2026-05-06 15:37 | 52.14130 | 4.14169 | 35918 ft | 421 kts | 244° |
| 2026-05-06 15:37 | 52.11593 | 4.05583 | 35917 ft | 421 kts | 244° |
| 2026-05-06 15:38 | 52.09053 | 3.97017 | 35918 ft | 420 kts | 244° |
| 2026-05-06 15:38 | 52.06522 | 3.88527 | 35919 ft | 419 kts | 244° |
| 2026-05-06 15:39 | 52.03959 | 3.79946 | 35924 ft | 419 kts | 244° |
| 2026-05-06 15:39 | 52.01415 | 3.71492 | 35917 ft | 419 kts | 243° |
| 2026-05-06 15:40 | 51.98852 | 3.62997 | 35916 ft | 419 kts | 244° |
| 2026-05-06 15:40 | 51.96290 | 3.54497 | 35918 ft | 419 kts | 244° |
| 2026-05-06 15:41 | 51.93717 | 3.45997 | 35921 ft | 420 kts | 244° |
| 2026-05-06 15:41 | 51.91131 | 3.37496 | 35926 ft | 420 kts | 243° |
| 2026-05-06 15:42 | 51.88541 | 3.29018 | 35932 ft | 420 kts | 243° |
| 2026-05-06 15:42 | 51.85961 | 3.20530 | 35935 ft | 420 kts | 246° |
| 2026-05-06 15:43 | 51.84541 | 3.11401 | 35933 ft | 421 kts | 264° |
| 2026-05-06 15:43 | 51.83963 | 3.01989 | 35932 ft | 421 kts | 263° |
| 2026-05-06 15:44 | 51.83336 | 2.92566 | 35934 ft | 421 kts | 263° |
| 2026-05-06 15:44 | 51.82696 | 2.83137 | 35940 ft | 422 kts | 263° |
| 2026-05-06 15:45 | 51.82059 | 2.73702 | 35948 ft | 422 kts | 263° |
| 2026-05-06 15:45 | 51.81738 | 2.68985 | 35409 ft | 422 kts | 263° |
| 2026-05-06 15:45 | 51.81417 | 2.64275 | 34934 ft | 421 kts | 263° |
| 2026-05-06 15:46 | 51.81098 | 2.59585 | 34478 ft | 419 kts | 263° |
| 2026-05-06 15:46 | 51.80779 | 2.54918 | 34021 ft | 417 kts | 263° |
| 2026-05-06 15:46 | 51.80457 | 2.50276 | 33510 ft | 413 kts | 263° |
| 2026-05-06 15:46 | 51.80135 | 2.45703 | 33072 ft | 407 kts | 263° |
| 2026-05-06 15:47 | 51.79816 | 2.41198 | 32612 ft | 401 kts | 263° |
| 2026-05-06 15:47 | 51.79498 | 2.36748 | 32174 ft | 396 kts | 263° |
| 2026-05-06 15:47 | 51.79183 | 2.32364 | 31741 ft | 391 kts | 263° |
| 2026-05-06 15:47 | 51.78869 | 2.28029 | 31306 ft | 386 kts | 262° |
| 2026-05-06 15:48 | 51.78558 | 2.23753 | 30881 ft | 382 kts | 262° |
| 2026-05-06 15:48 | 51.78262 | 2.19515 | 30457 ft | 377 kts | 263° |
| 2026-05-06 15:48 | 51.78005 | 2.15314 | 30056 ft | 375 kts | 263° |
| 2026-05-06 15:48 | 51.77767 | 2.11131 | 29616 ft | 373 kts | 264° |
| 2026-05-06 15:49 | 51.77539 | 2.06985 | 29223 ft | 369 kts | 264° |
| 2026-05-06 15:49 | 51.77310 | 2.02867 | 28828 ft | 366 kts | 264° |
| 2026-05-06 15:49 | 51.77075 | 1.98792 | 28457 ft | 363 kts | 263° |
| 2026-05-06 15:49 | 51.76838 | 1.94749 | 28081 ft | 360 kts | 263° |
| 2026-05-06 15:50 | 51.76597 | 1.90739 | 27713 ft | 357 kts | 263° |
| 2026-05-06 15:50 | 51.76355 | 1.86763 | 27354 ft | 354 kts | 263° |
| 2026-05-06 15:50 | 51.76115 | 1.82833 | 26991 ft | 351 kts | 263° |
| 2026-05-06 15:50 | 51.75877 | 1.78979 | 26642 ft | 347 kts | 263° |
| 2026-05-06 15:51 | 51.75636 | 1.75123 | 26283 ft | 344 kts | 263° |
| 2026-05-06 15:51 | 51.75394 | 1.71301 | 25941 ft | 340 kts | 263° |
| 2026-05-06 15:51 | 51.75152 | 1.67523 | 25568 ft | 337 kts | 263° |
| 2026-05-06 15:51 | 51.74913 | 1.63772 | 25211 ft | 335 kts | 264° |
| 2026-05-06 15:52 | 51.74676 | 1.60048 | 24841 ft | 333 kts | 264° |
| 2026-05-06 15:52 | 51.74437 | 1.56248 | 24304 ft | 345 kts | 264° |
| 2026-05-06 15:52 | 51.74273 | 1.53633 | 23949 ft | 347 kts | 264° |
| 2026-05-06 15:52 | 51.74032 | 1.49804 | 23418 ft | 349 kts | 264° |
| 2026-05-06 15:53 | 51.73780 | 1.45851 | 22844 ft | 349 kts | 264° |
| 2026-05-06 15:53 | 51.73529 | 1.41964 | 22320 ft | 348 kts | 264° |
| 2026-05-06 15:53 | 51.73278 | 1.38085 | 21798 ft | 347 kts | 264° |
| 2026-05-06 15:53 | 51.73028 | 1.34265 | 21284 ft | 346 kts | 264° |
| 2026-05-06 15:54 | 51.72776 | 1.30407 | 20773 ft | 345 kts | 264° |
| 2026-05-06 15:54 | 51.72522 | 1.26563 | 20249 ft | 345 kts | 264° |
| 2026-05-06 15:54 | 51.72267 | 1.22721 | 19734 ft | 344 kts | 264° |
| 2026-05-06 15:54 | 51.72012 | 1.18887 | 19221 ft | 344 kts | 264° |
| 2026-05-06 15:55 | 51.71755 | 1.15058 | 18714 ft | 342 kts | 264° |
| 2026-05-06 15:55 | 51.71498 | 1.11286 | 18188 ft | 335 kts | 264° |
| 2026-05-06 15:55 | 51.71244 | 1.07594 | 17660 ft | 327 kts | 264° |
| 2026-05-06 15:55 | 51.70996 | 1.03995 | 17179 ft | 320 kts | 264° |
| 2026-05-06 15:56 | 51.70752 | 1.00447 | 16705 ft | 316 kts | 264° |
| 2026-05-06 15:56 | 51.70512 | 0.96934 | 16226 ft | 316 kts | 264° |
| 2026-05-06 15:56 | 51.70274 | 0.93418 | 15785 ft | 315 kts | 264° |
| 2026-05-06 15:56 | 51.70035 | 0.89917 | 15333 ft | 314 kts | 264° |
| 2026-05-06 15:57 | 51.69792 | 0.86418 | 14884 ft | 314 kts | 264° |
| 2026-05-06 15:57 | 51.69548 | 0.82931 | 14442 ft | 312 kts | 264° |
| 2026-05-06 15:57 | 51.69305 | 0.79498 | 14003 ft | 305 kts | 264° |
| 2026-05-06 15:57 | 51.69069 | 0.76167 | 13551 ft | 301 kts | 264° |
| 2026-05-06 15:58 | 51.68827 | 0.72767 | 13054 ft | 302 kts | 264° |
| 2026-05-06 15:58 | 51.68593 | 0.69464 | 12765 ft | 298 kts | 264° |
| 2026-05-06 15:58 | 51.68355 | 0.66106 | 12430 ft | 297 kts | 265° |
| 2026-05-06 15:58 | 51.68121 | 0.62813 | 12037 ft | 296 kts | 264° |
| 2026-05-06 15:59 | 51.67889 | 0.59586 | 11747 ft | 291 kts | 265° |
| 2026-05-06 15:59 | 51.67652 | 0.56345 | 11361 ft | 290 kts | 265° |
| 2026-05-06 15:59 | 51.67416 | 0.53139 | 10911 ft | 286 kts | 265° |
| 2026-05-06 15:59 | 51.67183 | 0.49976 | 10483 ft | 283 kts | 265° |
| 2026-05-06 16:00 | 51.66948 | 0.46791 | 10087 ft | 282 kts | 265° |
| 2026-05-06 16:00 | 51.66722 | 0.43701 | 9691 ft | 281 kts | 265° |
| 2026-05-06 16:00 | 51.66494 | 0.40575 | 9300 ft | 281 kts | 265° |
| 2026-05-06 16:00 | 51.66266 | 0.37454 | 8923 ft | 281 kts | 265° |
| 2026-05-06 16:01 | 51.66038 | 0.34332 | 8538 ft | 281 kts | 264° |
| 2026-05-06 16:01 | 51.65809 | 0.31214 | 8165 ft | 280 kts | 264° |
| 2026-05-06 16:01 | 51.65580 | 0.28115 | 7986 ft | 278 kts | 264° |
| 2026-05-06 16:01 | 51.65347 | 0.25023 | 7994 ft | 279 kts | 264° |
| 2026-05-06 16:02 | 51.65114 | 0.21963 | 7991 ft | 269 kts | 264° |
| 2026-05-06 16:02 | 51.64890 | 0.19050 | 7996 ft | 255 kts | 264° |
| 2026-05-06 16:02 | 51.64675 | 0.16266 | 7995 ft | 247 kts | 264° |
| 2026-05-06 16:02 | 51.64478 | 0.13467 | 8003 ft | 265 kts | 266° |
| 2026-05-06 16:03 | 51.64310 | 0.10493 | 7994 ft | 264 kts | 266° |
| 2026-05-06 16:03 | 51.64148 | 0.07563 | 7998 ft | 262 kts | 266° |
| 2026-05-06 16:03 | 51.63986 | 0.04670 | 7999 ft | 257 kts | 266° |
| 2026-05-06 16:03 | 51.63823 | 0.01807 | 7992 ft | 256 kts | 266° |
| 2026-05-06 16:04 | 51.63658 | -0.01043 | 7999 ft | 256 kts | 266° |
| 2026-05-06 16:04 | 51.63493 | -0.03890 | 8001 ft | 256 kts | 266° |
| 2026-05-06 16:04 | 51.63329 | -0.06740 | 8042 ft | 255 kts | 266° |
| 2026-05-06 16:04 | 51.63164 | -0.09585 | 8054 ft | 255 kts | 266° |
| 2026-05-06 16:05 | 51.62998 | -0.12425 | 8049 ft | 255 kts | 266° |
| 2026-05-06 16:05 | 51.62830 | -0.15265 | 8053 ft | 255 kts | 266° |
| 2026-05-06 16:05 | 51.62661 | -0.18108 | 8056 ft | 255 kts | 266° |
| 2026-05-06 16:05 | 51.62492 | -0.20950 | 8057 ft | 255 kts | 266° |
| 2026-05-06 16:06 | 51.62323 | -0.23782 | 8056 ft | 254 kts | 266° |
| 2026-05-06 16:06 | 51.62153 | -0.26614 | 8057 ft | 254 kts | 266° |
| 2026-05-06 16:06 | 51.61982 | -0.29441 | 8054 ft | 254 kts | 266° |
| 2026-05-06 16:06 | 51.61809 | -0.32243 | 8001 ft | 245 kts | 266° |
| 2026-05-06 16:07 | 51.61644 | -0.34943 | 7540 ft | 242 kts | 266° |
| 2026-05-06 16:07 | 51.61484 | -0.37628 | 7185 ft | 241 kts | 266° |
| 2026-05-06 16:07 | 51.61327 | -0.40293 | 6995 ft | 238 kts | 266° |
| 2026-05-06 16:07 | 51.61172 | -0.42956 | 7001 ft | 239 kts | 266° |
| 2026-05-06 16:08 | 51.61014 | -0.45629 | 7003 ft | 240 kts | 266° |
| 2026-05-06 16:08 | 51.60855 | -0.48301 | 7001 ft | 240 kts | 266° |
| 2026-05-06 16:08 | 51.60695 | -0.50969 | 7004 ft | 240 kts | 266° |
| 2026-05-06 16:08 | 51.60535 | -0.53632 | 6999 ft | 239 kts | 266° |
| 2026-05-06 16:09 | 51.60374 | -0.56293 | 7003 ft | 239 kts | 266° |
| 2026-05-06 16:09 | 51.60210 | -0.58943 | 6881 ft | 236 kts | 266° |
| 2026-05-06 16:09 | 51.60044 | -0.61578 | 6511 ft | 237 kts | 266° |
| 2026-05-06 16:09 | 51.59879 | -0.64219 | 6139 ft | 237 kts | 266° |
| 2026-05-06 16:10 | 51.59714 | -0.66847 | 5762 ft | 236 kts | 266° |
| 2026-05-06 16:10 | 51.59545 | -0.69458 | 5399 ft | 235 kts | 266° |
| 2026-05-06 16:10 | 51.59372 | -0.72060 | 5041 ft | 233 kts | 266° |
| 2026-05-06 16:10 | 51.59197 | -0.74649 | 4703 ft | 232 kts | 266° |
| 2026-05-06 16:11 | 51.58984 | -0.77228 | 4341 ft | 234 kts | 259° |
| 2026-05-06 16:11 | 51.58193 | -0.79452 | 4029 ft | 236 kts | 224° |
| 2026-05-06 16:11 | 51.56732 | -0.80648 | 4005 ft | 242 kts | 191° |
| 2026-05-06 16:11 | 51.55053 | -0.80886 | 4004 ft | 242 kts | 181° |
| 2026-05-06 16:12 | 51.53370 | -0.80966 | 4008 ft | 242 kts | 181° |
| 2026-05-06 16:12 | 51.51688 | -0.81032 | 4005 ft | 242 kts | 181° |
| 2026-05-06 16:12 | 51.50032 | -0.80687 | 4003 ft | 241 kts | 156° |
| 2026-05-06 16:12 | 51.48724 | -0.79107 | 4001 ft | 230 kts | 127° |
| 2026-05-06 16:13 | 51.47914 | -0.76996 | 3732 ft | 222 kts | 108° |
| 2026-05-06 16:13 | 51.47615 | -0.74634 | 3381 ft | 211 kts | 87° |
| 2026-05-06 16:13 | 51.47626 | -0.72331 | 3122 ft | 201 kts | 86° |
| 2026-05-06 16:13 | 51.47639 | -0.70140 | 2831 ft | 193 kts | 86° |
| 2026-05-06 16:14 | 51.47651 | -0.68039 | 2565 ft | 184 kts | 86° |
| 2026-05-06 16:14 | 51.47662 | -0.66050 | 2317 ft | 173 kts | 85° |
| 2026-05-06 16:14 | 51.47672 | -0.64168 | 2092 ft | 166 kts | 85° |
| 2026-05-06 16:14 | 51.47683 | -0.62331 | 1866 ft | 163 kts | 86° |
| 2026-05-06 16:15 | 51.47692 | -0.60528 | 1649 ft | 161 kts | 85° |
| 2026-05-06 16:15 | 51.47702 | -0.58741 | 1424 ft | 160 kts | 85° |
| 2026-05-06 16:15 | 51.47711 | -0.56952 | 1212 ft | 160 kts | 85° |
| 2026-05-06 16:15 | 51.47717 | -0.55231 | 972 ft | 146 kts | 85° |
| 2026-05-06 16:16 | 51.47724 | -0.53685 | 768 ft | 134 kts | 84° |
| 2026-05-06 16:16 | 51.47731 | -0.52207 | 546 ft | 131 kts | 84° |
| 2026-05-06 16:16 | 51.47741 | -0.50763 | 367 ft | 129 kts | 84° |
| 2026-05-06 16:16 | 51.47744 | -0.49326 | 204 ft | 129 kts | 86° |
| 2026-05-06 16:17 | 51.47750 | -0.47909 | 89 ft | 119 kts | 85° |
| 2026-05-06 16:17 | 51.47757 | -0.46788 | 95 ft | 77 kts | 90° |
| 2026-05-06 16:17 | 51.47755 | -0.46243 | 90 ft | 27 kts | 100° |
| 2026-05-06 16:17 | 51.47666 | -0.46103 | 88 ft | 12 kts | 145° |
| 2026-05-06 16:18 | 51.47633 | -0.46068 | 85 ft | 5 kts | 148° |
| 2026-05-06 16:18 | 51.47596 | -0.46067 | 86 ft | 5 kts | 226° |
| 2026-05-06 16:18 | 51.47583 | -0.46126 | 87 ft | 8 kts | 268° |
| 2026-05-06 16:18 | 51.47592 | -0.46223 | 88 ft | 9 kts | 274° |
| 2026-05-06 16:19 | 51.47592 | -0.46298 | 89 ft | 7 kts | 269° |
| 2026-05-06 16:19 | 51.47591 | -0.46385 | 89 ft | 9 kts | 268° |
| 2026-05-06 16:19 | 51.47591 | -0.46495 | 90 ft | 11 kts | 271° |
| 2026-05-06 16:19 | 51.47591 | -0.46627 | 90 ft | 13 kts | 270° |
| 2026-05-06 16:20 | 51.47591 | -0.46785 | 90 ft | 16 kts | 270° |
| 2026-05-06 16:20 | 51.47583 | -0.46975 | 89 ft | 18 kts | 268° |
| 2026-05-06 16:20 | 51.47582 | -0.47180 | 90 ft | 20 kts | 270° |
| 2026-05-06 16:20 | 51.47582 | -0.47365 | 87 ft | 16 kts | 269° |
| 2026-05-06 16:21 | 51.47582 | -0.47533 | 88 ft | 14 kts | 270° |
| 2026-05-06 16:21 | 51.47579 | -0.47716 | 87 ft | 19 kts | 270° |
| 2026-05-06 16:21 | 51.47579 | -0.47886 | 88 ft | 15 kts | 270° |
| 2026-05-06 16:21 | 51.47579 | -0.48046 | 88 ft | 14 kts | 271° |
| 2026-05-06 16:22 | 51.47579 | -0.48190 | 92 ft | 12 kts | 270° |
| 2026-05-06 16:22 | 51.47578 | -0.48337 | 92 ft | 13 kts | 269° |
| 2026-05-06 16:22 | 51.47559 | -0.48466 | 91 ft | 11 kts | 213° |
| 2026-05-06 16:22 | 51.47481 | -0.48475 | 89 ft | 12 kts | 179° |
| 2026-05-06 16:23 | 51.47403 | -0.48474 | 87 ft | 8 kts | 179° |
| 2026-05-06 16:23 | 51.47362 | -0.48512 | 86 ft | 7 kts | 247° |
| 2026-05-06 16:23 | 51.47361 | -0.48564 | 85 ft | 3 kts | 271° |
| 2026-05-06 16:23 | 51.47361 | -0.48583 | 86 ft | 0 kts | 270° |
| 2026-05-06 16:24 | 51.47361 | -0.48584 | 86 ft | 0 kts | 269° |